Date,TemperatureHighF,TemperatureAvgF,TemperatureLowF,DewpointHighF,DewpointAvgF,DewpointLowF,HumidityHigh,HumidityAvg,HumidityLow,PressureMaxIn,PressureMinIn,WindSpeedMaxMPH,WindSpeedAvgMPH,GustSpeedMaxMPH,PrecipitationSumIn
2013-8-1,80.0,68.7,58.0,61.8,58.3,54.9,100,73,43,30.06,29.92,0,0,10,0.00
2013-8-2,81.0,72.1,63.0,77.0,63.0,55.3,100,76,49,30.01,29.87,0,0,30,0.01
2013-8-3,77.0,66.2,54.0,63.4,55.0,51.6,98,70,42,30.15,30.02,0,0,9,0.00
2013-8-4,78.0,65.6,53.0,61.0,55.7,51.6,95,73,47,30.26,30.10,0,0,3,0.00
2013-8-5,73.0,64.9,58.0,65.1,60.9,56.0,97,88,71,30.10,29.88,5,0,8,0.00
2013-8-6,84.0,73.7,66.0,71.9,67.7,65.1,100,83,55,29.94,29.79,0,0,16,0.00
2013-8-7,77.0,70.3,63.0,75.0,65.9,58.7,100,87,61,29.97,29.79,0,0,32,0.00
2013-8-8,80.0,67.8,55.0,63.9,59.0,52.7,96,75,51,30.11,29.93,0,0,0,0.00
2013-8-9,82.0,70.1,60.0,64.9,59.4,54.0,92,71,48,30.01,29.91,0,0,1,0.00
2013-8-10,77.0,65.6,55.0,61.3,57.4,54.2,98,77,51,30.12,30.02,0,0,0,0.00
2013-8-11,71.0,62.3,57.0,71.0,62.1,55.9,100,99,95,30.12,30.02,0,0,0,0.00
2013-8-12,81.0,70.1,62.0,75.5,63.8,58.9,100,83,53,30.06,29.95,0,0,1,0.00
2013-8-13,71.0,61.8,51.0,60.4,52.0,48.2,92,72,50,30.22,30.02,0,0,16,0.00
2013-8-14,77.0,61.6,47.0,58.2,52.5,46.5,99,75,45,30.29,30.13,0,0,0,0.00
2013-8-15,81.0,66.6,58.0,62.0,58.0,55.1,98,77,44,30.18,30.09,0,0,0,0.00
2013-8-16,85.0,68.6,56.0,67.8,58.5,54.9,100,75,38,30.23,30.13,0,0,0,0.00
2013-8-17,82.0,68.8,56.0,66.2,59.0,55.4,100,75,45,30.26,30.13,0,0,0,0.00
2013-8-18,82.0,68.9,55.0,64.6,58.3,54.2,99,72,45,30.22,30.05,0,0,0,0.00
2013-8-19,82.0,70.7,58.0,64.9,61.8,57.4,99,76,49,30.17,30.02,0,0,1,0.00
2013-8-20,86.0,74.8,62.0,68.6,65.5,60.7,99,75,53,30.09,30.02,0,0,14,0.00
2013-8-21,89.0,78.8,70.0,73.8,69.9,65.9,95,75,58,30.05,29.93,0,0,11,0.01
2013-8-22,85.0,72.1,65.0,71.5,66.3,59.7,100,84,52,30.17,30.00,0,0,3,0.00
2013-8-23,85.0,70.0,56.0,63.4,59.7,53.4,93,72,47,30.24,30.13,0,0,0,0.00
2013-8-24,84.0,72.1,57.0,70.4,63.0,55.1,96,75,50,30.25,30.11,0,0,0,0.00
2013-8-25,90.0,80.6,72.0,73.7,70.3,67.6,88,72,58,30.14,30.00,0,0,11,0.00
2013-8-26,91.0,81.5,74.0,77.1,71.8,67.0,85,73,59,30.18,29.93,0,0,1,0.00
2013-8-27,95.0,84.0,74.0,77.3,74.2,71.2,94,74,54,29.99,29.86,0,0,3,0.00
2013-8-28,85.0,77.2,72.0,75.8,72.6,68.2,100,87,65,30.10,29.93,0,0,0,0.00
2013-8-29,91.0,81.0,66.0,75.1,67.7,62.1,100,67,39,30.17,29.49,9,2,17,0.00
2013-8-30,92.0,80.9,69.0,78.5,71.4,63.3,96,74,53,30.00,29.34,7,3,15,0.00
2013-8-31,83.0,72.9,63.0,68.8,65.2,61.0,97,79,53,29.94,29.32,6,1,11,0.00